Portada
METAR-TAF:

METAR-TAF

Aeroports :

Danville, Kentucky, Estats Units d'Amèrica

latitud: 37-34-40N, longitud: 084-46-11W, altitud: 312 m

Observació

L'informe es va fer fa 26 minuts, a les 01:35 UTC
Vent 9 kt del Sud-Oest
Temperatura 20°C
Humitat 78%
Pressió 1016 hPa
Visibilitat: 16.1 km
Cel clar

METAR: KDVK 180135Z AUTO 23009KT 10SM CLR 20/16 A2999 RMK AO2

Hora: 22:01 (02:01 UTC)


TAF: manca

Observacions i pronòstics meteorològics de més de 4000 aeroports (METAR i TAF).

Les estacions disponibles són els punts grocs i vermells al mapa.

Posi el ratolí al punt desitjat per veure el nom de l'estació.

Feu clic per veure les observacions i els pronòstics meteorològics.

Per canviar el mapa: feu clic els botons verds amb una creu de color negre per apropar; al botó verd amb un guió per allunyar la imatge; o en les fletxes verdes per a mapes adjacents.


METAR-TAF: